createdAt,value
2018-08-31T00:02:27.135Z,14.60
2018-08-31T00:05:00.790Z,14.60
2018-08-31T00:07:40.774Z,14.63
2018-08-31T00:10:14.279Z,14.55
2018-08-31T00:12:41.958Z,14.61
2018-08-31T00:15:10.246Z,14.65
2018-08-31T00:17:39.173Z,14.61
2018-08-31T00:20:07.075Z,14.57
2018-08-31T00:22:34.612Z,14.55
2018-08-31T00:25:07.678Z,14.65
2018-08-31T00:27:40.926Z,14.56
2018-08-31T00:30:14.143Z,14.52
2018-08-31T00:33:04.255Z,14.43
2018-08-31T00:36:11.646Z,14.42
2018-08-31T00:39:00.317Z,14.37
2018-08-31T00:43:40.667Z,14.45
2018-08-31T00:46:08.250Z,14.40
2018-08-31T00:48:35.815Z,14.31
2018-08-31T00:51:03.625Z,14.29
2018-08-31T00:53:31.146Z,14.31
2018-08-31T00:55:58.670Z,14.32
2018-08-31T00:58:26.610Z,14.28
2018-08-31T01:00:54.123Z,14.34
2018-08-31T01:03:22.696Z,14.39
2018-08-31T01:05:50.305Z,14.36
2018-08-31T01:08:17.858Z,14.38
2018-08-31T01:10:45.498Z,14.34
2018-08-31T01:13:13.112Z,14.44
2018-08-31T01:15:40.708Z,14.34
2018-08-31T01:18:08.222Z,14.38
2018-08-31T01:20:35.787Z,14.37
2018-08-31T01:23:03.319Z,14.24
2018-08-31T01:25:32.802Z,14.18
2018-08-31T01:28:00.374Z,14.21
2018-08-31T01:30:27.894Z,14.23
2018-08-31T01:32:55.430Z,14.20
2018-08-31T01:35:22.953Z,14.22
2018-08-31T01:37:50.483Z,14.20
2018-08-31T01:40:17.997Z,14.09
2018-08-31T01:42:45.566Z,14.08
2018-08-31T01:45:13.114Z,14.11
2018-08-31T01:47:40.667Z,14.01
2018-08-31T01:50:08.219Z,14.09
2018-08-31T01:52:35.831Z,14.11
2018-08-31T01:55:03.431Z,14.12
2018-08-31T01:57:31.343Z,14.13
2018-08-31T01:59:58.991Z,14.00
2018-08-31T02:02:26.537Z,14.01
2018-08-31T02:04:54.231Z,13.98
2018-08-31T02:07:21.767Z,13.97
2018-08-31T02:09:49.334Z,14.03
2018-08-31T02:12:16.903Z,13.98
2018-08-31T02:14:44.430Z,13.94
2018-08-31T02:17:12.522Z,13.97
2018-08-31T02:19:40.114Z,14.08
2018-08-31T02:22:07.654Z,14.07
2018-08-31T02:24:35.434Z,13.94
2018-08-31T02:27:03.011Z,13.97
2018-08-31T02:29:30.524Z,13.94
2018-08-31T02:31:58.037Z,13.95
2018-08-31T02:34:25.511Z,14.02
2018-08-31T02:36:53.295Z,14.08
2018-08-31T02:39:20.875Z,14.11
2018-08-31T02:41:48.386Z,13.92
2018-08-31T02:44:15.922Z,13.88
2018-08-31T02:46:43.747Z,13.79
2018-08-31T02:49:11.342Z,13.83
2018-08-31T02:51:38.858Z,13.80
2018-08-31T02:54:06.722Z,13.80
2018-08-31T02:56:34.248Z,13.91
2018-08-31T02:59:01.775Z,13.92
2018-08-31T03:01:29.601Z,13.81
2018-08-31T03:03:57.164Z,13.83
2018-08-31T03:06:24.682Z,13.80
2018-08-31T03:08:52.238Z,13.83
2018-08-31T03:11:19.850Z,13.71
2018-08-31T03:13:47.397Z,13.75
2018-08-31T03:16:14.902Z,13.67
2018-08-31T03:18:42.430Z,13.77
2018-08-31T03:21:09.975Z,13.79
2018-08-31T03:23:37.848Z,13.70
2018-08-31T03:26:05.382Z,13.58
2018-08-31T03:28:32.911Z,13.49
2018-08-31T03:31:00.829Z,13.39
2018-08-31T03:33:28.358Z,13.41
2018-08-31T03:35:55.997Z,13.42
2018-08-31T03:38:23.610Z,13.41
2018-08-31T03:40:51.501Z,13.33
2018-08-31T03:43:19.030Z,13.43
2018-08-31T03:45:46.550Z,13.48
2018-08-31T03:48:14.118Z,13.50
2018-08-31T03:50:41.655Z,13.48
2018-08-31T03:53:09.166Z,13.49
2018-08-31T03:55:36.817Z,13.63
2018-08-31T03:58:04.351Z,13.59
2018-08-31T04:00:31.946Z,13.46
2018-08-31T04:02:59.434Z,13.48
2018-08-31T04:05:26.983Z,13.48
2018-08-31T04:07:54.738Z,13.63
2018-08-31T04:10:22.266Z,13.62
2018-08-31T04:12:49.813Z,13.64
2018-08-31T04:15:17.286Z,13.61
2018-08-31T04:17:44.750Z,13.57
2018-08-31T04:20:12.277Z,13.64
2018-08-31T04:22:39.744Z,13.65
2018-08-31T04:25:07.418Z,13.63
2018-08-31T04:27:34.890Z,13.61
2018-08-31T04:30:02.463Z,13.65
2018-08-31T04:32:30.179Z,13.60
2018-08-31T04:34:57.711Z,13.62
2018-08-31T04:37:25.267Z,13.52
2018-08-31T04:39:52.758Z,13.55
2018-08-31T04:42:20.239Z,13.52
2018-08-31T04:44:47.803Z,13.63
2018-08-31T04:47:15.434Z,13.59
2018-08-31T04:49:42.977Z,13.51
2018-08-31T04:52:10.508Z,13.36
2018-08-31T04:54:38.022Z,13.37
2018-08-31T04:57:05.903Z,13.48
2018-08-31T04:59:33.431Z,13.32
2018-08-31T05:02:01.193Z,13.35
2018-08-31T05:04:28.762Z,13.37
2018-08-31T05:06:56.361Z,13.31
2018-08-31T05:09:23.899Z,13.32
2018-08-31T05:11:51.487Z,13.24
2018-08-31T05:14:19.002Z,13.29
2018-08-31T05:16:46.543Z,13.47
2018-08-31T05:19:14.085Z,13.39
2018-08-31T05:21:41.630Z,13.39
2018-08-31T05:24:09.219Z,13.36
2018-08-31T05:26:36.722Z,13.42
2018-08-31T05:29:05.202Z,13.37
2018-08-31T05:31:32.754Z,13.32
2018-08-31T05:34:00.572Z,13.28
2018-08-31T05:36:28.109Z,13.25
2018-08-31T05:38:55.618Z,13.37
2018-08-31T05:41:23.193Z,13.37
2018-08-31T05:43:50.717Z,13.29
2018-08-31T05:46:18.258Z,13.37
2018-08-31T05:48:46.051Z,13.37
2018-08-31T05:51:13.591Z,13.40
2018-08-31T05:53:41.208Z,13.40
2018-08-31T05:56:09.894Z,13.34
2018-08-31T05:58:37.437Z,13.34
2018-08-31T06:01:05.022Z,13.36
2018-08-31T06:03:32.607Z,13.41
2018-08-31T06:06:00.218Z,13.47
2018-08-31T06:08:27.785Z,13.45
2018-08-31T06:10:55.346Z,13.33
2018-08-31T06:13:22.943Z,13.38
2018-08-31T06:15:50.522Z,13.39
2018-08-31T06:18:18.131Z,13.40
2018-08-31T06:20:45.671Z,13.52
2018-08-31T06:23:13.202Z,13.40
2018-08-31T06:25:40.746Z,13.36
2018-08-31T06:28:08.308Z,13.45
2018-08-31T06:30:36.433Z,13.31
2018-08-31T06:33:04.006Z,13.39
2018-08-31T06:35:31.584Z,13.45
2018-08-31T06:37:59.138Z,13.48
2018-08-31T06:40:26.850Z,13.41
2018-08-31T06:42:54.395Z,13.51
2018-08-31T06:45:21.950Z,13.57
2018-08-31T06:47:49.462Z,13.57
2018-08-31T06:50:16.986Z,13.68
2018-08-31T06:52:44.550Z,13.63
2018-08-31T06:55:12.106Z,13.63
2018-08-31T06:57:39.630Z,13.75
2018-08-31T07:00:07.434Z,13.77
2018-08-31T07:02:34.982Z,13.70
2018-08-31T07:05:02.514Z,13.78
2018-08-31T07:07:30.612Z,13.85
2018-08-31T07:09:58.150Z,13.88
2018-08-31T07:12:26.562Z,13.95
2018-08-31T07:14:54.118Z,13.83
2018-08-31T07:17:21.646Z,13.98
2018-08-31T07:19:49.495Z,13.98
2018-08-31T07:22:16.990Z,13.96
2018-08-31T07:24:44.514Z,13.94
2018-08-31T07:27:12.057Z,13.91
2018-08-31T07:29:39.606Z,14.02
2018-08-31T07:32:07.224Z,13.85
2018-08-31T07:34:34.730Z,13.81
2018-08-31T07:37:02.306Z,13.90
2018-08-31T07:39:29.843Z,13.92
2018-08-31T07:41:57.482Z,13.90
2018-08-31T07:44:24.990Z,13.94
2018-08-31T07:46:52.542Z,13.91
2018-08-31T07:49:20.231Z,14.01
2018-08-31T07:51:47.764Z,14.03
2018-08-31T07:54:15.329Z,14.01
2018-08-31T07:56:42.786Z,14.11
2018-08-31T07:59:10.312Z,14.15
2018-08-31T08:01:37.866Z,14.15
2018-08-31T08:04:05.719Z,14.23
2018-08-31T08:06:33.274Z,14.38
2018-08-31T08:09:00.845Z,14.45
2018-08-31T08:11:28.474Z,14.38
2018-08-31T08:13:55.991Z,14.46
2018-08-31T08:16:23.520Z,14.54
2018-08-31T08:18:51.026Z,14.52
2018-08-31T08:21:18.578Z,14.55
2018-08-31T08:23:46.127Z,14.54
2018-08-31T08:26:13.643Z,14.50
2018-08-31T08:28:41.136Z,14.53
2018-08-31T08:31:09.067Z,14.59
2018-08-31T08:33:36.559Z,14.58
2018-08-31T08:36:04.180Z,14.65
2018-08-31T08:38:31.690Z,14.72
2018-08-31T08:40:59.165Z,14.63
2018-08-31T08:43:26.668Z,14.71
2018-08-31T08:45:54.182Z,14.57
2018-08-31T08:48:21.804Z,14.72
2018-08-31T08:50:49.232Z,14.74
2018-08-31T08:53:16.813Z,14.67
2018-08-31T08:55:44.345Z,14.68
2018-08-31T08:58:11.945Z,14.82
2018-08-31T09:00:39.518Z,14.88
2018-08-31T09:03:07.019Z,14.91
2018-08-31T09:05:34.605Z,15.06
2018-08-31T09:08:02.054Z,15.13
2018-08-31T09:10:29.563Z,15.19
2018-08-31T09:12:57.140Z,15.18
2018-08-31T09:15:24.675Z,15.30
2018-08-31T09:17:52.883Z,15.22
2018-08-31T09:20:20.506Z,15.33
2018-08-31T09:22:48.012Z,15.23
2018-08-31T09:25:16.626Z,15.09
2018-08-31T09:27:44.165Z,15.03
2018-08-31T09:30:18.619Z,15.05
2018-08-31T09:32:46.187Z,15.07
2018-08-31T09:35:13.722Z,15.03
2018-08-31T09:37:41.239Z,14.97
2018-08-31T09:40:08.777Z,15.11
2018-08-31T09:42:36.326Z,15.02
2018-08-31T09:45:03.923Z,15.01
2018-08-31T09:47:31.476Z,14.88
2018-08-31T09:50:00.090Z,14.90
2018-08-31T09:52:27.554Z,14.86
2018-08-31T09:54:55.087Z,14.92
2018-08-31T09:57:22.671Z,15.02
2018-08-31T09:59:50.239Z,15.11
2018-08-31T10:02:23.726Z,15.21
2018-08-31T10:04:51.805Z,15.17
2018-08-31T10:07:19.354Z,15.13
2018-08-31T10:09:47.410Z,15.22
2018-08-31T10:12:14.930Z,15.22
2018-08-31T10:14:42.430Z,15.26
2018-08-31T10:17:10.303Z,15.21
2018-08-31T10:19:37.845Z,15.26
2018-08-31T10:22:05.387Z,15.36
2018-08-31T10:24:32.922Z,15.41
2018-08-31T10:27:00.426Z,15.51
2018-08-31T10:29:28.186Z,15.55
2018-08-31T10:31:56.044Z,15.37
2018-08-31T10:34:23.542Z,15.39
2018-08-31T10:36:51.038Z,15.32
2018-08-31T10:39:19.612Z,15.25
2018-08-31T10:41:47.135Z,15.12
2018-08-31T10:44:14.773Z,15.12
2018-08-31T10:46:42.350Z,15.11
2018-08-31T10:49:09.909Z,15.21
2018-08-31T10:51:37.737Z,15.11
2018-08-31T10:54:05.414Z,15.02
2018-08-31T10:56:33.591Z,15.10
2018-08-31T10:59:01.198Z,15.24
2018-08-31T11:01:28.755Z,15.02
2018-08-31T11:03:56.321Z,15.12
2018-08-31T11:06:23.867Z,15.04
2018-08-31T11:08:51.375Z,14.73
2018-08-31T11:11:18.911Z,14.83
2018-08-31T11:13:46.435Z,14.76
2018-08-31T11:16:13.915Z,14.58
2018-08-31T11:18:41.526Z,14.55
2018-08-31T11:21:09.391Z,14.61
2018-08-31T11:23:36.892Z,14.66
2018-08-31T11:26:04.415Z,14.68
2018-08-31T11:28:31.970Z,14.66
2018-08-31T11:30:59.449Z,14.66
2018-08-31T11:33:26.995Z,14.60
2018-08-31T11:35:54.502Z,14.62
2018-08-31T11:38:22.007Z,14.46
2018-08-31T11:40:49.575Z,14.41
2018-08-31T11:43:17.211Z,14.37
2018-08-31T11:45:44.697Z,14.17
2018-08-31T11:48:12.222Z,14.20
2018-08-31T11:50:39.744Z,14.16
2018-08-31T11:53:07.498Z,14.23
2018-08-31T11:55:35.199Z,14.22
2018-08-31T11:58:02.931Z,14.24
2018-08-31T12:00:30.610Z,14.33
2018-08-31T12:02:58.126Z,14.29
2018-08-31T12:05:25.689Z,14.35
2018-08-31T12:07:53.238Z,14.21
2018-08-31T12:10:20.745Z,14.28
2018-08-31T12:12:48.278Z,14.11
2018-08-31T12:15:15.918Z,14.15
2018-08-31T12:17:43.484Z,14.22
2018-08-31T12:20:11.015Z,14.15
2018-08-31T12:22:38.554Z,14.17
2018-08-31T12:25:06.372Z,14.30
2018-08-31T12:27:33.934Z,14.33
2018-08-31T12:30:01.447Z,14.38
2018-08-31T12:32:29.999Z,14.45
2018-08-31T12:34:57.593Z,14.56
2018-08-31T12:37:25.150Z,14.50
2018-08-31T12:39:52.611Z,14.42
2018-08-31T12:42:20.214Z,14.29
2018-08-31T12:44:47.742Z,14.29
2018-08-31T12:47:15.281Z,14.26
2018-08-31T12:49:42.815Z,14.22
2018-08-31T12:52:10.372Z,14.06
2018-08-31T12:54:37.918Z,14.03
2018-08-31T12:57:05.451Z,14.01
2018-08-31T12:59:32.991Z,14.02
2018-08-31T13:02:00.510Z,13.93
2018-08-31T13:04:28.112Z,13.86
2018-08-31T13:06:55.741Z,13.83
2018-08-31T13:09:23.370Z,13.82
2018-08-31T13:11:51.185Z,13.80
2018-08-31T13:14:19.104Z,13.86
2018-08-31T13:16:46.672Z,13.81
2018-08-31T13:19:14.237Z,13.69
2018-08-31T13:21:41.822Z,13.63
2018-08-31T13:24:09.345Z,13.62
2018-08-31T13:26:36.946Z,13.53
2018-08-31T13:29:04.491Z,13.53
2018-08-31T13:31:32.101Z,13.51
2018-08-31T13:33:59.695Z,13.57
2018-08-31T13:36:27.256Z,13.56
2018-08-31T13:38:54.873Z,13.47
2018-08-31T13:41:22.437Z,13.52
2018-08-31T13:43:50.016Z,13.49
2018-08-31T13:46:17.569Z,13.46
2018-08-31T13:48:45.158Z,13.42
2018-08-31T13:51:12.738Z,13.43
2018-08-31T13:53:40.274Z,13.36
2018-08-31T13:56:07.847Z,13.32
2018-08-31T13:58:35.739Z,13.30
2018-08-31T14:01:03.315Z,13.36
2018-08-31T14:03:30.878Z,13.25
2018-08-31T14:05:58.440Z,13.17
2018-08-31T14:08:25.960Z,13.16
2018-08-31T14:10:53.850Z,13.16
2018-08-31T14:13:21.406Z,13.14
2018-08-31T14:15:48.978Z,13.22
2018-08-31T14:18:16.539Z,13.32
2018-08-31T14:20:44.100Z,13.38
2018-08-31T14:23:11.646Z,13.33
2018-08-31T14:25:39.214Z,13.36
2018-08-31T14:28:06.814Z,13.28
2018-08-31T14:30:34.334Z,13.35
2018-08-31T14:33:01.907Z,13.32
2018-08-31T14:35:29.595Z,13.34
2018-08-31T14:37:57.190Z,13.33
2018-08-31T14:40:24.787Z,13.29
2018-08-31T14:42:52.343Z,13.33
2018-08-31T14:45:19.908Z,13.33
2018-08-31T14:47:47.522Z,13.33
2018-08-31T14:50:15.413Z,13.32
2018-08-31T14:52:42.986Z,13.30
2018-08-31T14:55:10.575Z,13.23
2018-08-31T14:57:39.288Z,13.36
2018-08-31T15:00:06.889Z,13.35
2018-08-31T15:02:34.496Z,13.45
2018-08-31T15:05:02.060Z,13.47
2018-08-31T15:07:29.576Z,13.46
2018-08-31T15:09:57.146Z,13.45
2018-08-31T15:12:24.697Z,13.47
2018-08-31T15:14:52.275Z,13.42
2018-08-31T15:17:19.813Z,13.40
2018-08-31T15:19:47.634Z,13.41
2018-08-31T15:22:15.738Z,13.43
2018-08-31T15:24:43.296Z,13.41
2018-08-31T15:27:10.964Z,13.35
2018-08-31T15:29:38.495Z,13.35
2018-08-31T15:32:06.070Z,13.39
2018-08-31T15:34:33.649Z,13.40
2018-08-31T15:37:01.221Z,13.34
2018-08-31T15:39:28.828Z,13.34
2018-08-31T15:41:56.402Z,13.37
2018-08-31T15:44:24.023Z,13.31
2018-08-31T15:46:51.596Z,13.36
2018-08-31T15:49:19.153Z,13.31
2018-08-31T15:51:46.715Z,13.33
2018-08-31T15:54:14.234Z,13.47
2018-08-31T15:56:41.773Z,13.37
2018-08-31T15:59:09.291Z,13.44
2018-08-31T16:01:36.867Z,13.42
2018-08-31T16:04:04.404Z,13.44
2018-08-31T16:06:31.938Z,13.51
2018-08-31T16:08:59.457Z,13.45
2018-08-31T16:11:27.048Z,13.41
2018-08-31T16:13:54.580Z,13.55
2018-08-31T16:16:22.083Z,13.54
2018-08-31T16:18:49.688Z,13.42
2018-08-31T16:21:17.357Z,13.39
2018-08-31T16:23:44.923Z,13.37
2018-08-31T16:26:12.451Z,13.36
2018-08-31T16:28:40.006Z,13.38
2018-08-31T16:31:07.599Z,13.34
2018-08-31T16:33:35.134Z,13.29
2018-08-31T16:36:02.725Z,13.33
2018-08-31T16:38:30.660Z,13.34
2018-08-31T16:40:58.259Z,13.27
2018-08-31T16:43:25.905Z,13.24
2018-08-31T16:45:53.482Z,13.18
2018-08-31T16:48:21.296Z,13.27
2018-08-31T16:50:48.883Z,13.24
2018-08-31T16:53:16.444Z,13.16
2018-08-31T16:55:44.052Z,13.12
2018-08-31T16:58:11.603Z,13.25
2018-08-31T17:00:39.194Z,13.30
2018-08-31T17:03:06.755Z,13.25
2018-08-31T17:05:34.337Z,13.25
2018-08-31T17:08:02.188Z,13.09
2018-08-31T17:10:29.711Z,13.13
2018-08-31T17:12:57.245Z,13.04
2018-08-31T17:15:24.805Z,13.02
2018-08-31T17:17:52.385Z,13.04
2018-08-31T17:20:20.027Z,13.04
2018-08-31T17:22:47.585Z,13.10
2018-08-31T17:25:16.047Z,13.06
2018-08-31T17:27:49.171Z,13.01
2018-08-31T17:30:22.669Z,13.03
2018-08-31T17:32:55.751Z,13.05
2018-08-31T17:35:29.156Z,13.01
2018-08-31T17:37:59.216Z,12.98
2018-08-31T17:40:26.861Z,12.98
2018-08-31T17:42:54.390Z,12.96
2018-08-31T17:45:21.967Z,13.01
2018-08-31T17:47:50.320Z,13.03
2018-08-31T17:50:17.871Z,13.05
2018-08-31T17:52:45.711Z,13.04
2018-08-31T17:55:13.372Z,12.99
2018-08-31T17:57:40.964Z,13.00
2018-08-31T18:00:09.050Z,13.01
2018-08-31T18:02:36.677Z,13.00
2018-08-31T18:05:04.250Z,13.05
2018-08-31T18:07:31.835Z,13.07
2018-08-31T18:09:59.358Z,12.99
2018-08-31T18:12:27.190Z,13.09
2018-08-31T18:14:55.051Z,13.11
2018-08-31T18:17:22.620Z,13.12
2018-08-31T18:19:50.174Z,13.01
2018-08-31T18:22:17.824Z,12.99
2018-08-31T18:24:45.386Z,12.98
2018-08-31T18:27:12.955Z,12.86
2018-08-31T18:29:40.509Z,12.90
2018-08-31T18:32:08.050Z,12.94
2018-08-31T18:34:35.614Z,12.97
2018-08-31T18:37:03.191Z,13.03
2018-08-31T18:39:30.720Z,13.02
2018-08-31T18:41:58.267Z,13.09
2018-08-31T18:44:26.160Z,13.02
2018-08-31T18:46:53.788Z,12.96
2018-08-31T18:49:21.275Z,12.97
2018-08-31T18:51:48.831Z,12.96
2018-08-31T18:54:16.375Z,12.85
2018-08-31T18:56:43.938Z,12.90
2018-08-31T18:59:11.475Z,12.85
2018-08-31T19:01:39.066Z,12.81
2018-08-31T19:04:06.639Z,12.80
2018-08-31T19:06:34.256Z,12.90
2018-08-31T19:09:01.861Z,12.88
2018-08-31T19:11:29.444Z,12.72
2018-08-31T19:13:58.134Z,12.66
2018-08-31T19:16:25.685Z,12.75
2018-08-31T19:18:53.247Z,12.68
2018-08-31T19:21:20.895Z,12.69
2018-08-31T19:23:48.437Z,12.68
2018-08-31T19:26:15.959Z,12.59
2018-08-31T19:28:43.503Z,12.63
2018-08-31T19:31:11.193Z,12.61
2018-08-31T19:33:38.819Z,12.56
2018-08-31T19:36:06.510Z,12.58
2018-08-31T19:38:34.264Z,12.63
2018-08-31T19:41:02.062Z,12.50
2018-08-31T19:43:29.647Z,12.53
2018-08-31T19:45:57.314Z,12.59
2018-08-31T19:48:24.985Z,12.52
2018-08-31T19:50:52.610Z,12.47
2018-08-31T19:53:20.207Z,12.52
2018-08-31T19:55:47.806Z,12.44
2018-08-31T19:58:15.369Z,12.41
2018-08-31T20:00:42.960Z,12.35
2018-08-31T20:03:10.598Z,12.37
2018-08-31T20:05:38.365Z,12.50
2018-08-31T20:08:06.015Z,12.46
2018-08-31T20:10:33.630Z,12.44
2018-08-31T20:13:01.206Z,12.39
2018-08-31T20:15:28.773Z,12.45
2018-08-31T20:17:56.351Z,12.32
2018-08-31T20:20:23.929Z,12.44
2018-08-31T20:22:51.510Z,12.44
2018-08-31T20:25:19.073Z,12.37
2018-08-31T20:27:46.675Z,12.51
2018-08-31T20:30:14.266Z,12.43
2018-08-31T20:32:41.855Z,12.36
2018-08-31T20:35:09.455Z,12.51
2018-08-31T20:37:37.043Z,12.50
2018-08-31T20:40:05.111Z,12.53
2018-08-31T20:42:32.662Z,12.50
2018-08-31T20:45:00.258Z,12.43
2018-08-31T20:47:27.839Z,12.41
2018-08-31T20:49:55.363Z,12.44
2018-08-31T20:52:22.962Z,12.48
2018-08-31T20:54:50.536Z,12.52
2018-08-31T20:57:18.374Z,12.50
2018-08-31T20:59:45.918Z,12.54
2018-08-31T21:02:13.469Z,12.57
2018-08-31T21:04:41.047Z,12.57
2018-08-31T21:07:09.094Z,12.58
2018-08-31T21:09:36.699Z,12.59
2018-08-31T21:12:04.298Z,12.67
2018-08-31T21:14:31.883Z,12.66
2018-08-31T21:16:59.460Z,12.59
2018-08-31T21:19:27.051Z,12.57
2018-08-31T21:21:54.597Z,12.55
2018-08-31T21:24:22.406Z,12.63
2018-08-31T21:26:49.939Z,12.66
2018-08-31T21:29:17.507Z,12.70
2018-08-31T21:31:45.053Z,12.63
2018-08-31T21:34:12.608Z,12.74
2018-08-31T21:36:40.198Z,12.63
2018-08-31T21:39:08.061Z,12.66
2018-08-31T21:41:35.647Z,12.63
2018-08-31T21:44:03.266Z,12.67
2018-08-31T21:46:30.848Z,12.68
2018-08-31T21:48:58.388Z,12.66
2018-08-31T21:51:25.961Z,12.69
2018-08-31T21:53:53.515Z,12.65
2018-08-31T21:56:21.098Z,12.67
2018-08-31T21:58:48.732Z,12.65
2018-08-31T22:02:19.602Z,12.73
2018-08-31T22:04:47.899Z,12.71
2018-08-31T22:07:15.450Z,12.66
2018-08-31T22:09:43.071Z,12.66
2018-08-31T22:12:10.606Z,12.83
2018-08-31T22:14:38.449Z,12.80
2018-08-31T22:17:05.972Z,12.87
2018-08-31T22:19:33.579Z,12.91
2018-08-31T22:22:01.149Z,12.86
2018-08-31T22:24:28.723Z,12.85
2018-08-31T22:26:56.288Z,12.83
2018-08-31T22:29:23.912Z,12.85
2018-08-31T22:31:51.448Z,12.82
2018-08-31T22:34:19.024Z,12.76
2018-08-31T22:36:46.571Z,12.71
2018-08-31T22:39:14.099Z,12.69
2018-08-31T22:41:41.623Z,12.73
2018-08-31T22:44:09.192Z,12.80
2018-08-31T22:46:36.766Z,12.78
2018-08-31T22:49:04.598Z,12.74
2018-08-31T22:51:32.113Z,12.74
2018-08-31T22:53:59.654Z,12.74
2018-08-31T22:56:27.205Z,12.67
2018-08-31T22:58:55.090Z,12.73
2018-08-31T23:01:22.618Z,12.74
2018-08-31T23:03:50.135Z,12.72
2018-08-31T23:06:17.705Z,12.71
2018-08-31T23:08:45.261Z,12.72
2018-08-31T23:11:12.786Z,12.78
2018-08-31T23:13:42.435Z,12.82
2018-08-31T23:16:09.925Z,12.84
2018-08-31T23:18:37.802Z,12.80
2018-08-31T23:21:05.820Z,12.89
2018-08-31T23:23:38.969Z,12.97
2018-08-31T23:26:06.781Z,12.90
2018-08-31T23:28:34.324Z,12.85
2018-08-31T23:31:01.836Z,12.77
2018-08-31T23:33:29.520Z,12.72
2018-08-31T23:35:57.049Z,12.68
2018-08-31T23:38:24.625Z,12.69
2018-08-31T23:40:52.162Z,12.69
2018-08-31T23:43:19.710Z,12.63
2018-08-31T23:45:47.539Z,12.59
2018-08-31T23:48:15.115Z,12.56
2018-08-31T23:50:42.642Z,12.52
2018-08-31T23:53:10.194Z,12.54
2018-08-31T23:55:37.718Z,12.47
2018-08-31T23:58:05.413Z,12.56
